Artesia, Mississippi
Current Conditions -  °F | °C
As of 10:45 AM on Wednesday 22 Oct 2014 (Local Time) from KGTR Reporting Station
Clear Clear  
Wind Chill: 63°   Ceiling: Unl
Heat Index: 63°   Visibility: 10mi
Dew Point: 43°   Wind: 10mph
Humidity: 48%   Direction: 30°NNE
Pressure: 30.2"   Gusts: NA
Location:  33.42°N, 88.64°W
Report Text: KGTR 221545Z 03009KT 10SM SKC 17/06 A3020
Loading
Personal Weather Stations






























Interactive Weather Map New forecast layout! Learn more

10-Day Weather Forecast

Advertisements
Track Severe Weather on mobile